シカゴ/オヘア の空港の天気 - METARとTAF

シカゴ・オヘア国際空港 ( KORD / ORD ) - アメリカ イリノイ州シカゴ
飛行場実況気象(Metar)
観測時間03/09 00:51 CST (03/09 06:51 UTC)
風向・風速静穏 0m/s
視程10km以上
天気現象
全天の8割程度の雲 雲底高度 7620m
気温7.2℃
湿度76%
気圧1025.4hPa
METARKORD 090651Z 00000KT 10SM BKN250 07/03 A3028 RMK AO2 SLP254 T00720033
過去の天気等 Google飛行場航空写真 Wunderground天気予報

過去48時間のMETAR

飛行場予報(TAF)
発表時間: 3/08 23:20 CST (3/09 05:20 UTC)
予報対象時間: 9日0時 CST ~ 10日6時 CST
風向・風速不定 2m/s
視程10km以上
全天の8割程度の雲 雲底高度 7620m
9日7時 CST から
風向・風速南 4m/s
視程10km以上
全天の8割程度の雲 雲底高度 6100m
9日12時 CST から
風向・風速南 9m/s 瞬間風速 14m/s
視程10km以上
全天の4割程度の雲 雲底高度 6100m
9日20時 CST から
風向・風速南 7m/s 瞬間風速 12m/s
視程10km以上
少しの雲 雲底高度 1520m
全天の4割程度の雲 雲底高度 4570m
KORD 090520Z 0906/1012 VRB03KT P6SM BKN250
FM091300 18008KT P6SM BKN200
FM091800 19018G28KT P6SM SCT200
FM100200 19014G24KT P6SM FEW050 SCT150 WS015/21050KT